Time;durP1;ratioP1;P1;durP2;ratioP2;P2;SDS_P1;SDS_P2;PMS_P1;PMS_P2;Temp;Humidity;BMP_temperature;BMP_pressure;BME280_temperature;BME280_humidity;BME280_pressure;Samples;Min_cycle;Max_cycle;Signal;HPM_P1;HPM_P2
2022/05/17 00:01:51;;;;;;;4.50;4.10;;;;;;;21.03;44.63;94774.38;4751028;30;20204;-80
2022/05/17 00:04:16;;;;;;;4.43;4.13;;;;;;;20.87;44.55;94775.34;4751033;30;20476;-80
2022/05/17 00:06:42;;;;;;;6.43;4.43;;;;;;;20.95;44.48;94769.53;4750201;30;20199;-80
2022/05/17 00:09:08;;;;;;;4.63;4.33;;;;;;;20.86;44.08;94771.84;4750183;30;20200;-80
2022/05/17 00:11:34;;;;;;;9.83;9.07;;;;;;;20.66;45.03;94775.19;4750060;30;20192;-80
2022/05/17 00:13:59;;;;;;;13.53;12.30;;;;;;;20.54;45.05;94768.41;4761066;30;20470;-79
2022/05/17 00:16:26;;;;;;;13.33;12.03;;;;;;;20.59;45.11;94768.44;4768067;30;20309;-80
2022/05/17 00:18:52;;;;;;;15.40;11.70;;;;;;;20.56;45.37;94775.06;4752019;30;20215;-81
2022/05/17 00:21:18;;;;;;;13.93;12.50;;;;;;;20.62;45.28;94773.28;4751544;30;20480;-81
2022/05/17 00:23:44;;;;;;;12.17;11.07;;;;;;;20.66;45.32;94769.88;4766244;30;20230;-81
2022/05/17 00:26:10;;;;;;;10.87;9.80;;;;;;;20.75;44.96;94772.03;4768109;30;20268;-80
2022/05/17 00:28:37;;;;;;;11.20;10.23;;;;;;;20.60;45.19;94770.88;4768347;30;20433;-81
2022/05/17 00:31:05;;;;;;;11.73;10.80;;;;;;;20.61;45.45;94777.78;4766264;30;20588;-80
2022/05/17 00:33:30;;;;;;;14.33;13.17;;;;;;;20.61;45.21;94772.47;4766111;30;20429;-81
2022/05/17 00:35:56;;;;;;;11.20;10.30;;;;;;;20.57;45.18;94770.56;4748666;30;20426;-80
2022/05/17 00:38:21;;;;;;;11.97;10.70;;;;;;;20.71;44.86;94763.78;4749864;30;20585;-80
2022/05/17 00:40:47;;;;;;;12.47;11.47;;;;;;;20.48;45.56;94768.34;4754972;30;20214;-79
2022/05/17 00:43:22;;;;;;;12.00;11.00;;;;;;;20.41;46.01;94762.47;4770321;30;20219;-81
2022/05/17 00:45:50;;;;;;;11.23;10.10;;;;;;;20.46;45.87;94764.34;4750899;30;20244;-80
2022/05/17 00:48:19;;;;;;;11.83;10.90;;;;;;;20.65;45.35;94762.94;4765671;30;20468;-81
2022/05/17 00:50:47;;;;;;;12.27;11.37;;;;;;;20.44;45.98;94769.13;4763050;30;20494;-81
2022/05/17 00:53:24;;;;;;;11.00;10.00;;;;;;;20.35;46.22;94771.44;4748884;30;20451;-80
2022/05/17 00:56:00;;;;;;;9.67;8.87;;;;;;;20.40;46.26;94768.81;4750426;30;20421;-80
2022/05/17 00:58:31;;;;;;;8.57;6.77;;;;;;;20.27;46.54;94770.03;4769268;30;20454;-80
2022/05/17 01:01:03;;;;;;;7.57;6.70;;;;;;;20.39;46.20;94766.41;4764268;30;20433;-80
2022/05/17 01:03:56;;;;;;;5.57;5.07;;;;;;;20.03;46.84;94756.28;4764567;30;20481;-81
2022/05/17 01:06:24;;;;;;;6.00;5.40;;;;;;;20.39;45.89;94763.75;4748417;30;20470;-80
2022/05/17 01:08:50;;;;;;;5.77;5.17;;;;;;;20.22;46.41;94758.53;4748882;30;20445;-80
2022/05/17 01:11:16;;;;;;;4.87;4.57;;;;;;;20.44;45.74;94761.94;4766147;30;20436;-80
2022/05/17 01:16:26;;;;;;;7.20;4.87;;;;;;;20.37;45.61;94755.22;4749317;30;20304;-80
2022/05/17 01:18:53;;;;;;;5.17;4.67;;;;;;;20.38;45.46;94744.34;4748798;30;20446;-80
2022/05/17 01:21:18;;;;;;;4.90;4.23;;;;;;;20.27;45.42;94755.94;4753016;30;20251;-80
2022/05/17 01:23:44;;;;;;;5.47;4.93;;;;;;;20.33;45.43;94749.63;4766864;30;20488;-80
2022/05/17 01:26:14;;;;;;;6.07;5.57;;;;;;;20.34;45.55;94745.13;4766022;30;20286;-81
2022/05/17 01:28:40;;;;;;;6.00;5.40;;;;;;;20.31;45.32;94745.63;4760291;30;20204;-80
2022/05/17 01:31:06;;;;;;;4.70;4.40;;;;;;;20.32;45.73;94742.72;4757944;30;20453;-80
2022/05/17 01:33:34;;;;;;;5.27;4.80;;;;;;;20.27;45.33;94747.97;4748192;30;20196;-80
2022/05/17 01:36:01;;;;;;;7.40;5.60;;;;;;;20.21;45.59;94746.31;4771766;30;20482;-80
2022/05/17 01:38:28;;;;;;;4.07;3.87;;;;;;;20.24;45.51;94751.94;4774921;30;20434;-81
2022/05/17 01:40:54;;;;;;;5.00;4.60;;;;;;;20.22;45.39;94748.75;4766297;30;20463;-80
2022/05/17 01:43:20;;;;;;;4.60;4.10;;;;;;;19.97;45.68;94741.31;4750009;30;20501;-81
2022/05/17 01:45:45;;;;;;;5.23;4.67;;;;;;;20.03;45.97;94745.63;4750243;30;20195;-80
2022/05/17 01:48:11;;;;;;;8.33;5.37;;;;;;;20.17;45.68;94745.22;4755479;30;20457;-79
2022/05/17 01:50:36;;;;;;;6.73;5.57;;;;;;;20.08;46.03;94745.66;4765103;30;20243;-80
2022/05/17 01:53:03;;;;;;;7.47;6.87;;;;;;;19.90;46.37;94751.34;4780347;30;20258;-80
2022/05/17 01:55:28;;;;;;;7.27;6.57;;;;;;;20.27;45.60;94756.75;4782832;30;20321;-81
2022/05/17 01:57:54;;;;;;;5.77;5.30;;;;;;;20.08;46.33;94750.19;4783308;30;20428;-80
2022/05/17 02:00:21;;;;;;;9.10;6.00;;;;;;;19.93;46.85;94750.84;4783228;30;20222;-80
2022/05/17 02:02:47;;;;;;;6.53;5.87;;;;;;;19.78;46.90;94766.59;4774664;30;20218;-81
2022/05/17 02:05:12;;;;;;;5.40;5.00;;;;;;;19.74;46.61;94747.72;4765837;30;20467;-80
2022/05/17 02:07:37;;;;;;;5.17;4.70;;;;;;;19.77;47.12;94757.03;4764297;30;20310;-80
2022/05/17 02:10:04;;;;;;;4.70;4.40;;;;;;;19.82;46.75;94754.44;4780233;30;20202;-79
2022/05/17 02:12:31;;;;;;;5.27;4.97;;;;;;;19.73;46.83;94756.75;4780785;30;20639;-79
2022/05/17 02:14:56;;;;;;;5.37;5.00;;;;;;;19.45;47.41;94757.72;4764412;30;20461;-80
2022/05/17 02:17:22;;;;;;;6.47;5.30;;;;;;;19.83;46.33;94753.41;4776072;30;20505;-80
2022/05/17 02:19:47;;;;;;;4.93;4.63;;;;;;;19.79;46.93;94760.25;4766735;30;20202;-80
2022/05/17 02:22:13;;;;;;;5.17;4.73;;;;;;;19.74;47.08;94766.31;4772242;30;20219;-80
2022/05/17 02:24:38;;;;;;;4.80;4.50;;;;;;;19.41;48.08;94767.22;4749477;30;20257;-80
2022/05/17 02:27:04;;;;;;;5.47;5.07;;;;;;;19.13;48.53;94761.00;4765290;30;20203;-82
2022/05/17 02:29:30;;;;;;;5.47;4.97;;;;;;;19.26;48.36;94763.31;4766971;30;20251;-80
2022/05/17 02:31:56;;;;;;;5.53;5.03;;;;;;;19.46;47.73;94761.94;4783003;30;20190;-80
2022/05/17 02:34:21;;;;;;;5.90;5.30;;;;;;;19.36;48.10;94759.97;4777206;30;20453;-80
2022/05/17 02:36:46;;;;;;;5.93;5.43;;;;;;;19.20;48.51;94761.66;4765983;30;20183;-80
2022/05/17 02:39:12;;;;;;;6.13;5.63;;;;;;;19.05;48.65;94762.25;4767489;30;20234;-80
2022/05/17 02:41:37;;;;;;;6.20;5.60;;;;;;;19.34;47.56;94755.97;4783233;30;20250;-79
2022/05/17 02:44:03;;;;;;;7.20;5.47;;;;;;;19.15;48.43;94756.25;4782693;30;20234;-80
2022/05/17 02:46:32;;;;;;;6.03;4.93;;;;;;;19.22;48.32;94762.19;4781738;30;20190;-80
2022/05/17 02:49:01;;;;;;;6.07;5.57;;;;;;;19.22;48.52;94745.50;4766691;30;20286;-80
2022/05/17 02:51:27;;;;;;;8.03;6.90;;;;;;;19.16;48.63;94752.56;4774990;30;21082;-80
2022/05/17 02:53:53;;;;;;;6.67;6.23;;;;;;;19.07;48.70;94754.03;4765443;30;20434;-80
2022/05/17 02:56:19;;;;;;;6.13;5.50;;;;;;;19.18;48.84;94750.47;4766107;30;20437;-80
2022/05/17 02:58:44;;;;;;;5.97;5.40;;;;;;;19.08;48.90;94751.16;4782696;30;20202;-81
2022/05/17 03:01:10;;;;;;;6.80;6.20;;;;;;;19.25;48.84;94759.03;4782667;30;20194;-80
2022/05/17 03:03:40;;;;;;;5.93;5.47;;;;;;;19.10;49.51;94756.19;4782774;30;20237;-81
2022/05/17 03:06:07;;;;;;;8.70;5.67;;;;;;;18.95;49.63;94756.78;4766379;30;20527;-79
2022/05/17 03:08:32;;;;;;;8.20;6.33;;;;;;;18.76;50.09;94758.06;4782159;30;20456;-81
2022/05/17 03:10:57;;;;;;;8.47;7.07;;;;;;;19.02;49.58;94753.97;4765913;30;20463;-80
2022/05/17 03:13:23;;;;;;;7.07;6.40;;;;;;;19.08;48.65;94760.94;4782231;30;20203;-80
2022/05/17 03:15:52;;;;;;;6.60;6.07;;;;;;;19.02;48.73;94759.28;4782447;30;20217;-80
2022/05/17 03:18:17;;;;;;;6.93;6.13;;;;;;;19.19;48.86;94751.28;4782145;30;20659;-81
2022/05/17 03:20:43;;;;;;;7.13;6.63;;;;;;;19.22;48.42;94756.09;4766745;30;20437;-80
2022/05/17 03:23:08;;;;;;;7.47;6.53;;;;;;;19.41;48.40;94760.06;4772310;30;20226;-81
2022/05/17 03:25:34;;;;;;;9.70;6.20;;;;;;;19.11;49.07;94761.25;4755019;30;20270;-80
2022/05/17 03:27:59;;;;;;;8.20;6.87;;;;;;;18.97;49.57;94757.34;4767776;30;20211;-80
2022/05/17 03:30:25;;;;;;;16.63;7.83;;;;;;;19.02;48.89;94761.91;4766368;30;20206;-81
2022/05/17 03:32:51;;;;;;;8.20;6.63;;;;;;;19.15;49.13;94761.56;4764434;30;20195;-80
2022/05/17 03:35:16;;;;;;;8.13;7.40;;;;;;;19.34;48.61;94763.94;4771992;30;20226;-81
2022/05/17 03:37:42;;;;;;;7.83;7.07;;;;;;;19.43;48.37;94759.81;4764939;30;20282;-80
2022/05/17 03:40:09;;;;;;;7.97;7.20;;;;;;;19.49;48.43;94764.91;4764374;30;20200;-80
2022/05/17 03:42:35;;;;;;;8.23;7.10;;;;;;;19.60;48.36;94767.72;4766376;30;20225;-80
2022/05/17 03:45:01;;;;;;;7.80;7.20;;;;;;;19.58;47.97;94761.81;4768323;30;20545;-80
2022/05/17 03:47:27;;;;;;;6.57;6.00;;;;;;;19.61;47.56;94769.31;4765376;30;20222;-81
2022/05/17 03:49:52;;;;;;;8.00;7.30;;;;;;;19.56;48.12;94771.88;4780420;30;20448;-80
2022/05/17 03:52:18;;;;;;;7.50;6.83;;;;;;;19.69;47.83;94769.69;4764396;30;20271;-80
2022/05/17 03:54:43;;;;;;;9.00;6.93;;;;;;;19.74;47.47;94776.13;4764746;30;20195;-79
2022/05/17 03:57:09;;;;;;;8.00;6.63;;;;;;;19.71;47.57;94774.75;4754903;30;20250;-81
2022/05/17 03:59:34;;;;;;;7.93;7.30;;;;;;;19.75;47.46;94775.06;4757997;30;20532;-81
2022/05/17 04:02:01;;;;;;;9.10;8.20;;;;;;;19.84;47.44;94770.91;4764098;30;20210;-81
2022/05/17 04:04:27;;;;;;;12.03;9.03;;;;;;;19.87;47.54;94773.88;4764667;30;20487;-81
2022/05/17 04:06:52;;;;;;;9.23;8.33;;;;;;;20.00;47.54;94772.69;4748733;30;20862;-81
2022/05/17 04:09:18;;;;;;;9.50;8.50;;;;;;;20.27;46.99;94772.69;4738799;30;20226;-81
2022/05/17 04:11:43;;;;;;;10.23;8.70;;;;;;;20.26;47.01;94770.28;4748062;30;20218;-81
2022/05/17 04:14:09;;;;;;;11.33;9.90;;;;;;;19.56;48.78;94769.22;4731069;30;20204;-82
2022/05/17 04:16:38;;;;;;;12.07;10.60;;;;;;;19.82;48.06;94765.84;4758661;30;20683;-81
2022/05/17 04:19:04;;;;;;;15.67;10.70;;;;;;;19.75;48.32;94769.75;4732599;30;20226;-81
2022/05/17 04:21:31;;;;;;;13.10;10.90;;;;;;;19.78;48.17;94769.28;4766683;30;20465;-81
2022/05/17 04:23:57;;;;;;;12.03;10.53;;;;;;;19.67;48.19;94774.44;4751292;30;20481;-81
2022/05/17 04:26:24;;;;;;;16.30;11.00;;;;;;;19.95;47.40;94785.91;4767295;30;20526;-81
2022/05/17 04:28:50;;;;;;;13.23;10.20;;;;;;;20.12;47.25;94782.38;4750857;30;20203;-81
2022/05/17 04:31:16;;;;;;;12.90;10.40;;;;;;;20.27;46.87;94787.84;4787445;30;20425;-81
2022/05/17 04:33:42;;;;;;;11.73;9.60;;;;;;;20.45;46.31;94794.63;4782151;30;20452;-81
2022/05/17 04:36:08;;;;;;;11.60;9.87;;;;;;;20.46;46.53;94789.06;4752094;30;20883;-81
2022/05/17 04:38:34;;;;;;;11.53;8.17;;;;;;;20.59;45.94;94795.84;4750438;30;20456;-80
2022/05/17 04:41:00;;;;;;;11.17;8.70;;;;;;;20.77;45.31;94800.00;4766891;30;20417;-81
2022/05/17 04:43:25;;;;;;;8.97;8.07;;;;;;;20.46;45.81;94796.25;4773486;30;20915;-82
2022/05/17 04:45:52;;;;;;;8.97;8.07;;;;;;;20.54;45.71;94792.31;4746074;30;20211;-82
2022/05/17 04:48:18;;;;;;;11.40;8.83;;;;;;;20.84;44.87;94792.59;4766791;30;20195;-81
2022/05/17 04:50:43;;;;;;;7.97;7.00;;;;;;;21.21;44.45;94794.44;4755590;30;20528;-81
2022/05/17 04:53:08;;;;;;;11.10;9.97;;;;;;;20.39;45.88;94793.78;4750843;30;20697;-81
2022/05/17 04:55:34;;;;;;;10.60;8.10;;;;;;;20.95;44.98;94792.69;4755375;30;20306;-81
2022/05/17 04:58:00;;;;;;;9.70;8.90;;;;;;;20.55;45.71;94786.75;4784762;30;20194;-82
2022/05/17 05:00:26;;;;;;;10.80;7.20;;;;;;;20.95;44.71;94788.16;4772885;30;20210;-82
2022/05/17 05:02:52;;;;;;;9.00;8.20;;;;;;;21.28;44.16;94785.44;4767153;30;20215;-81
2022/05/17 05:05:19;;;;;;;11.00;9.80;;;;;;;21.55;44.24;94778.16;4765229;30;20495;-81
2022/05/17 05:07:45;;;;;;;12.37;9.20;;;;;;;21.47;43.96;94786.63;4766180;30;20378;-81
2022/05/17 05:10:13;;;;;;;14.40;8.53;;;;;;;21.77;43.24;94785.16;4767074;30;20477;-81
2022/05/17 05:12:39;;;;;;;9.67;8.70;;;;;;;22.08;43.08;94782.56;4762184;30;20496;-80
2022/05/17 05:15:05;;;;;;;13.73;8.93;;;;;;;22.07;43.18;94791.66;4765742;30;20449;-80
2022/05/17 05:17:34;;;;;;;11.00;9.17;;;;;;;21.50;43.83;94783.44;4761112;30;22073;-81
2022/05/17 05:20:00;;;;;;;9.97;9.00;;;;;;;21.49;43.96;94784.50;4764003;30;20458;-80
2022/05/17 05:22:26;;;;;;;10.30;8.90;;;;;;;21.60;43.71;94783.47;4762764;30;20465;-80
2022/05/17 05:24:52;;;;;;;10.80;9.30;;;;;;;21.90;43.01;94781.22;4765886;30;20253;-81
2022/05/17 05:27:19;;;;;;;9.73;8.73;;;;;;;21.89;43.18;94769.72;4763389;30;20417;-81
2022/05/17 05:29:44;;;;;;;18.30;9.37;;;;;;;22.27;42.53;94769.56;4761762;30;20452;-80
2022/05/17 05:32:10;;;;;;;9.13;8.43;;;;;;;22.63;41.67;94772.28;4761118;30;21036;-81
2022/05/17 05:34:35;;;;;;;10.70;9.70;;;;;;;22.73;41.60;94774.97;4765677;30;20287;-79
2022/05/17 05:37:02;;;;;;;10.10;9.20;;;;;;;22.49;41.70;94775.47;4763881;30;20225;-81
2022/05/17 05:39:27;;;;;;;12.90;8.60;;;;;;;23.27;40.36;94778.91;4749960;30;20256;-81
2022/05/17 05:41:53;;;;;;;11.47;10.27;;;;;;;23.12;40.56;94780.53;4761673;30;20450;-81
2022/05/17 05:44:19;;;;;;;13.07;9.47;;;;;;;22.98;40.18;94780.25;4761386;30;20267;-81
2022/05/17 05:46:45;;;;;;;12.77;9.00;;;;;;;23.48;39.50;94785.00;4752603;30;20192;-81
2022/05/17 05:49:11;;;;;;;10.03;9.23;;;;;;;23.59;39.34;94781.22;4765265;30;20527;-82
2022/05/17 05:51:36;;;;;;;12.53;8.80;;;;;;;24.33;37.91;94781.41;4766376;30;20294;-81
2022/05/17 05:54:03;;;;;;;9.73;8.93;;;;;;;23.85;38.36;94779.28;4762742;30;20227;-81
2022/05/17 05:56:28;;;;;;;12.23;9.27;;;;;;;24.16;37.77;94782.56;4759958;30;20204;-81
2022/05/17 05:58:54;;;;;;;10.07;9.10;;;;;;;23.30;39.93;94781.84;4748189;30;20525;-81
2022/05/17 06:01:19;;;;;;;12.63;9.63;;;;;;;23.20;39.84;94776.50;4772524;30;20206;-81
2022/05/17 06:03:45;;;;;;;12.10;9.67;;;;;;;23.76;38.94;94780.88;4776946;30;20220;-81
2022/05/17 06:06:14;;;;;;;16.77;10.43;;;;;;;24.22;38.46;94772.66;4765831;30;20199;-80
2022/05/17 06:08:40;;;;;;;19.07;10.33;;;;;;;24.42;37.77;94774.41;4751318;30;20211;-80
2022/05/17 06:11:05;;;;;;;15.43;9.83;;;;;;;24.41;37.62;94772.00;4765877;30;20448;-80
2022/05/17 06:13:31;;;;;;;13.33;11.67;;;;;;;24.30;37.76;94776.59;4742035;30;20212;-81
2022/05/17 06:15:57;;;;;;;15.73;9.40;;;;;;;24.77;36.81;94777.91;4761543;30;20203;-81
2022/05/17 06:18:23;;;;;;;12.63;9.00;;;;;;;25.30;35.57;94767.25;4762715;30;20212;-81
2022/05/17 06:20:54;;;;;;;9.17;8.40;;;;;;;25.23;35.88;94772.19;4761775;30;20510;-82
2022/05/17 06:23:21;;;;;;;9.37;8.67;;;;;;;24.28;37.43;94768.88;4765197;30;20223;-81
2022/05/17 06:25:46;;;;;;;11.03;9.63;;;;;;;24.28;37.04;94776.91;4764765;30;20441;-81
2022/05/17 06:28:12;;;;;;;11.00;10.00;;;;;;;23.22;39.33;94785.06;4749111;30;20502;-81
2022/05/17 06:30:38;;;;;;;9.30;8.40;;;;;;;23.98;38.36;94780.56;4757176;30;20195;-80
2022/05/17 06:33:11;;;;;;;12.50;9.33;;;;;;;24.56;36.94;94777.25;4759753;30;20276;-81
2022/05/17 06:35:38;;;;;;;10.90;9.87;;;;;;;25.00;36.24;94778.25;4760535;30;20445;-80
2022/05/17 06:38:04;;;;;;;11.10;9.30;;;;;;;24.21;38.06;94776.41;4760358;30;20465;-80
2022/05/17 06:40:30;;;;;;;15.90;10.70;;;;;;;25.11;36.76;94780.53;4764773;30;20906;-80
2022/05/17 06:42:56;;;;;;;15.93;10.10;;;;;;;24.09;37.98;94773.25;4763250;30;20533;-80
2022/05/17 06:45:21;;;;;;;13.90;10.37;;;;;;;25.09;36.59;94777.34;4765636;30;20505;-80
2022/05/17 06:47:47;;;;;;;11.03;10.03;;;;;;;25.89;35.38;94770.59;4764795;30;20187;-81
2022/05/17 06:50:12;;;;;;;10.63;9.60;;;;;;;25.65;35.13;94767.13;4750016;30;20302;-81
2022/05/17 06:52:38;;;;;;;11.63;9.30;;;;;;;25.21;35.95;94770.81;4756877;30;20277;-81
2022/05/17 06:55:04;;;;;;;10.30;9.30;;;;;;;25.85;34.91;94758.84;4761499;30;20218;-80
2022/05/17 06:57:29;;;;;;;19.37;10.67;;;;;;;25.93;35.35;94765.47;4752180;30;20200;-80
2022/05/17 06:59:55;;;;;;;10.27;9.30;;;;;;;25.76;34.91;94767.81;4747008;30;20707;-81
2022/05/17 07:02:21;;;;;;;13.63;10.40;;;;;;;26.36;34.01;94761.94;4759737;30;20276;-80
2022/05/17 07:04:47;;;;;;;11.67;8.80;;;;;;;26.51;34.04;94755.56;4756503;30;20640;-80
2022/05/17 07:07:13;;;;;;;8.93;8.13;;;;;;;26.53;33.41;94762.22;4759356;30;20203;-81
2022/05/17 07:09:38;;;;;;;9.80;8.90;;;;;;;27.15;33.08;94763.91;4755196;30;20831;-81
2022/05/17 07:14:51;;;;;;;13.80;9.70;;;;;;;26.84;33.13;94754.50;4764730;30;20218;-81
2022/05/17 07:17:21;;;;;;;10.30;9.30;;;;;;;27.02;32.94;94754.75;4763633;30;20436;-80
2022/05/17 07:19:47;;;;;;;10.93;9.70;;;;;;;26.57;34.26;94752.50;4756656;30;20486;-80
2022/05/17 07:22:14;;;;;;;9.67;8.23;;;;;;;27.00;32.64;94752.34;4748210;30;20474;-81
2022/05/17 07:24:45;;;;;;;12.03;8.70;;;;;;;26.83;33.33;94749.44;4759800;30;20509;-80
2022/05/17 07:27:11;;;;;;;12.17;9.50;;;;;;;27.23;32.77;94745.22;4745889;30;20434;-80
2022/05/17 07:29:37;;;;;;;10.37;8.47;;;;;;;27.21;32.57;94746.63;4776421;30;20577;-81
2022/05/17 07:32:03;;;;;;;12.83;8.60;;;;;;;27.56;31.94;94744.34;4749791;30;20208;-80
2022/05/17 07:34:28;;;;;;;10.73;9.60;;;;;;;27.82;31.93;94745.44;4755231;30;20255;-81
2022/05/17 07:36:54;;;;;;;11.53;10.40;;;;;;;28.00;31.64;94741.06;4764527;30;20962;-81
2022/05/17 07:39:20;;;;;;;11.43;10.33;;;;;;;27.94;31.70;94741.47;4756850;30;20204;-81
2022/05/17 07:41:45;;;;;;;11.20;8.83;;;;;;;27.67;32.21;94748.44;4747013;30;20463;-81
2022/05/17 07:44:11;;;;;;;15.73;8.83;;;;;;;27.79;31.62;94737.16;4752981;30;20231;-81
2022/05/17 07:46:37;;;;;;;12.13;8.73;;;;;;;27.72;31.60;94744.88;4764519;30;20247;-82
2022/05/17 07:49:02;;;;;;;10.27;9.13;;;;;;;27.90;31.56;94725.13;4748533;30;20954;-81
2022/05/17 07:51:28;;;;;;;11.73;9.43;;;;;;;28.03;31.46;94729.66;4745549;30;20585;-81
2022/05/17 07:53:54;;;;;;;11.03;9.93;;;;;;;28.30;30.97;94727.22;4770730;30;20203;-80
2022/05/17 07:56:20;;;;;;;11.03;9.23;;;;;;;28.09;30.85;94727.66;4755890;30;20198;-81
2022/05/17 07:58:46;;;;;;;12.87;8.87;;;;;;;28.56;30.35;94728.22;4763626;30;20474;-81
2022/05/17 08:01:12;;;;;;;13.90;8.80;;;;;;;28.18;30.78;94722.38;4750451;30;20231;-80
2022/05/17 08:03:38;;;;;;;10.50;8.80;;;;;;;28.36;29.72;94720.59;4753529;30;20238;-81
2022/05/17 08:06:03;;;;;;;8.87;8.07;;;;;;;28.38;30.28;94718.41;4767973;30;20434;-80
2022/05/17 08:08:29;;;;;;;10.10;8.17;;;;;;;28.76;30.63;94715.34;4767943;30;20535;-81
2022/05/17 08:10:54;;;;;;;11.00;9.47;;;;;;;28.92;29.91;94721.16;4758526;30;20196;-81
2022/05/17 08:13:22;;;;;;;8.57;7.77;;;;;;;29.09;29.30;94720.47;4752265;30;20202;-80
2022/05/17 08:15:48;;;;;;;15.90;9.93;;;;;;;28.06;30.98;94709.44;4772183;30;20702;-81
2022/05/17 08:18:15;;;;;;;9.37;8.57;;;;;;;28.57;30.54;94710.16;4766122;30;20467;-81
2022/05/17 08:20:41;;;;;;;9.60;8.23;;;;;;;28.04;30.62;94708.97;4764484;30;20430;-80
2022/05/17 08:23:06;;;;;;;9.07;8.17;;;;;;;28.32;30.97;94701.56;4762620;30;20924;-81
2022/05/17 08:28:17;;;;;;;8.23;7.63;;;;;;;29.56;28.80;94699.25;4760995;30;20210;-81
2022/05/17 08:30:43;;;;;;;22.70;9.10;;;;;;;30.08;28.21;94707.44;4763032;30;20453;-80
2022/05/17 08:33:16;;;;;;;13.03;9.27;;;;;;;30.02;28.00;94703.31;4766741;30;20452;-80
2022/05/17 08:35:51;;;;;;;7.37;6.57;;;;;;;29.89;27.55;94705.03;4768503;30;20447;-81
2022/05/17 08:38:28;;;;;;;6.33;5.80;;;;;;;29.97;26.44;94695.38;4766055;30;20449;-81
2022/05/17 08:41:05;;;;;;;7.20;5.90;;;;;;;29.68;25.94;94698.63;4758254;30;20507;-81
2022/05/17 08:44:01;;;;;;;5.90;4.57;;;;;;;29.48;23.72;94694.63;4765056;30;20571;-81
2022/05/17 08:46:47;;;;;;;12.67;5.00;;;;;;;30.06;25.62;94692.69;4765062;30;20467;-80
2022/05/17 08:49:21;;;;;;;6.50;5.90;;;;;;;30.94;24.81;94697.72;4764552;30;20463;-80
2022/05/17 08:52:09;;;;;;;6.50;4.83;;;;;;;29.22;27.00;94686.47;4766734;30;20481;-80
2022/05/17 08:55:06;;;;;;;5.20;4.80;;;;;;;29.14;25.32;94690.69;4768134;30;20452;-81
2022/05/17 08:57:40;;;;;;;6.43;3.63;;;;;;;29.24;24.80;94695.81;4742237;30;20457;-81
2022/05/17 09:00:20;;;;;;;5.63;3.40;;;;;;;29.30;23.77;94686.47;4745881;30;20604;-81
2022/05/17 09:03:09;;;;;;;5.23;3.83;;;;;;;30.87;22.72;94683.88;4762607;30;20539;-80
2022/05/17 09:05:38;;;;;;;6.83;4.57;;;;;;;30.03;23.92;94686.03;4764239;30;20428;-81
2022/05/17 09:08:45;;;;;;;3.73;3.40;;;;;;;30.18;22.39;94682.03;4769321;30;20534;-80
2022/05/17 09:11:20;;;;;;;3.97;3.63;;;;;;;29.56;23.19;94683.06;4688778;30;20459;-81
2022/05/17 09:13:58;;;;;;;3.23;2.60;;;;;;;30.27;21.89;94672.03;4693447;30;20509;-81
2022/05/17 09:16:27;;;;;;;6.03;3.43;;;;;;;31.07;21.73;94674.28;4731283;30;20437;-80
2022/05/17 09:18:53;;;;;;;3.60;3.30;;;;;;;32.07;21.39;94673.94;4752569;30;20490;-80
2022/05/17 09:21:39;;;;;;;10.03;3.87;;;;;;;31.79;21.28;94669.00;4766294;30;20432;-80
2022/05/17 09:24:12;;;;;;;13.30;3.80;;;;;;;30.55;23.74;94667.09;4755816;30;20239;-80
2022/05/17 09:26:40;;;;;;;4.67;4.27;;;;;;;30.00;24.25;94675.06;4755633;30;20433;-80
2022/05/17 09:29:31;;;;;;;4.63;3.63;;;;;;;30.43;23.97;94664.28;4757832;30;20466;-80
2022/05/17 09:32:03;;;;;;;6.63;3.40;;;;;;;31.38;22.89;94667.81;4745619;30;20449;-81
2022/05/17 09:34:37;;;;;;;6.57;3.10;;;;;;;31.68;21.35;94670.50;4752504;30;20463;-80
2022/05/17 09:37:17;;;;;;;3.60;3.30;;;;;;;32.52;21.07;94665.13;4758739;30;21004;-80
2022/05/17 09:39:55;;;;;;;3.17;2.87;;;;;;;31.87;21.65;94653.81;4761751;30;20537;-80
2022/05/17 09:42:35;;;;;;;5.03;4.30;;;;;;;31.59;21.69;94654.34;4760603;30;20567;-80
2022/05/17 09:45:10;;;;;;;15.07;4.30;;;;;;;31.28;22.12;94647.34;4742333;30;20448;-79
2022/05/17 09:47:44;;;;;;;6.50;3.13;;;;;;;31.65;19.18;94642.19;4748819;30;20519;-80
2022/05/17 09:53:04;;;;;;;3.30;2.50;;;;;;;31.83;18.86;94636.66;4760859;30;20998;-80
2022/05/17 09:55:32;;;;;;;6.67;2.40;;;;;;;32.33;19.40;94640.41;4755662;30;20436;-80
2022/05/17 09:58:04;;;;;;;2.63;2.43;;;;;;;31.91;19.50;94638.53;4758333;30;20438;-80
2022/05/17 10:00:41;;;;;;;3.07;2.37;;;;;;;31.49;19.98;94631.19;4750960;30;20466;-79
2022/05/17 10:03:12;;;;;;;4.60;2.77;;;;;;;30.75;21.16;94632.41;4751868;30;20496;-80
2022/05/17 10:05:38;;;;;;;2.90;2.63;;;;;;;31.37;21.09;94635.66;4742139;30;20529;-80
2022/05/17 10:08:32;;;;;;;2.23;2.00;;;;;;;31.06;21.18;94624.03;4741086;30;20480;-80
2022/05/17 10:11:20;;;;;;;9.40;3.30;;;;;;;31.33;20.62;94630.91;4762402;30;20207;-80
2022/05/17 10:13:45;;;;;;;5.23;2.63;;;;;;;32.02;19.70;94620.75;4745987;30;20448;-79
2022/05/17 10:16:41;;;;;;;3.37;2.17;;;;;;;32.34;19.68;94623.81;4748015;30;20447;-80
2022/05/17 10:19:27;;;;;;;3.00;2.23;;;;;;;33.54;18.22;94613.84;4762603;30;20259;-80
2022/05/17 10:22:24;;;;;;;3.50;2.57;;;;;;;33.25;18.14;94612.94;4754997;30;20445;-81
2022/05/17 10:25:01;;;;;;;6.90;2.70;;;;;;;32.89;17.90;94616.41;4758957;30;20521;-80
2022/05/17 10:27:38;;;;;;;3.80;2.27;;;;;;;33.45;17.28;94607.75;4752876;30;20907;-80
2022/05/17 10:30:11;;;;;;;5.00;2.57;;;;;;;32.52;18.81;94607.38;4759014;30;20542;-80
2022/05/17 10:32:46;;;;;;;3.20;2.07;;;;;;;31.68;19.96;94598.25;4743468;30;20445;-80
2022/05/17 10:35:27;;;;;;;5.90;2.90;;;;;;;32.13;18.92;94596.00;4744889;30;20909;-80
2022/05/17 10:38:04;;;;;;;6.00;2.30;;;;;;;33.02;18.40;94598.25;4763534;30;20589;-80
2022/05/17 10:40:29;;;;;;;2.60;2.40;;;;;;;32.46;18.51;94588.66;4760391;30;20479;-80
2022/05/17 10:42:57;;;;;;;3.37;2.10;;;;;;;33.16;18.44;94584.34;4759250;30;20493;-80
2022/05/17 10:45:33;;;;;;;3.03;2.13;;;;;;;32.78;19.37;94583.56;4762327;30;20195;-80
2022/05/17 10:48:21;;;;;;;2.50;2.30;;;;;;;32.05;19.45;94579.50;4760103;30;20448;-80
2022/05/17 10:51:21;;;;;;;5.20;2.33;;;;;;;31.28;20.45;94568.09;4761782;30;20480;-80
2022/05/17 10:54:21;;;;;;;4.73;2.33;;;;;;;31.49;20.82;94565.44;4742702;30;20449;-81
2022/05/17 10:57:02;;;;;;;7.60;3.27;;;;;;;30.60;21.86;94565.38;4758957;30;20437;-80
2022/05/17 10:59:44;;;;;;;2.67;2.47;;;;;;;31.61;20.88;94565.50;4762820;30;20488;-81
2022/05/17 11:02:19;;;;;;;2.33;2.13;;;;;;;31.79;20.85;94559.94;4760793;30;20807;-80
2022/05/17 11:05:07;;;;;;;4.60;2.80;;;;;;;32.60;20.76;94561.25;4764226;30;20455;-80
2022/05/17 11:07:55;;;;;;;4.23;2.83;;;;;;;31.75;21.68;94556.31;4745122;30;20993;-80
2022/05/17 11:10:28;;;;;;;4.20;3.57;;;;;;;31.20;22.09;94548.09;4743118;30;20445;-81
2022/05/17 11:13:12;;;;;;;8.00;3.57;;;;;;;32.02;21.75;94544.16;4734821;30;20439;-81
2022/05/17 11:15:45;;;;;;;3.27;3.07;;;;;;;32.75;21.08;94537.34;4743647;30;20881;-81
2022/05/17 11:18:13;;;;;;;2.53;2.33;;;;;;;33.39;19.74;94542.06;4746953;30;20441;-80
2022/05/17 11:20:47;;;;;;;27.43;5.90;;;;;;;32.02;22.03;94536.81;4765317;30;20501;-80
2022/05/17 11:23:28;;;;;;;5.20;2.60;;;;;;;33.06;20.61;94523.97;4762226;30;20504;-81
2022/05/17 11:26:00;;;;;;;2.00;1.90;;;;;;;32.72;20.41;94519.81;4761010;30;20476;-81
2022/05/17 11:28:36;;;;;;;9.43;3.63;;;;;;;32.90;20.41;94520.41;4759725;30;20458;-80
2022/05/17 11:31:17;;;;;;;2.87;2.20;;;;;;;32.01;21.19;94518.19;4768896;30;20814;-81
2022/05/17 11:33:43;;;;;;;13.87;2.83;;;;;;;33.30;19.55;94521.63;4749083;30;20568;-81
2022/05/17 11:36:31;;;;;;;5.10;4.23;;;;;;;33.46;19.26;94500.75;4770177;30;20434;-81
2022/05/17 11:38:57;;;;;;;4.30;3.03;;;;;;;33.36;19.91;94515.59;4748203;30;20212;-80
2022/05/17 11:41:42;;;;;;;25.03;6.10;;;;;;;32.98;20.78;94511.34;4754155;30;20434;-81
2022/05/17 11:44:14;;;;;;;3.20;2.80;;;;;;;33.50;19.87;94503.56;4764340;30;20554;-81
2022/05/17 11:46:46;;;;;;;5.87;2.63;;;;;;;34.27;18.93;94495.25;4747340;30;20950;-80
2022/05/17 11:49:12;;;;;;;9.33;2.90;;;;;;;33.34;20.51;94498.09;4762693;30;20429;-80
2022/05/17 11:51:56;;;;;;;3.10;2.20;;;;;;;32.81;21.27;94493.38;4761964;30;20514;-81